createdAt,value
2022-10-06T00:01:17.399Z,7.37
2022-10-06T00:04:32.331Z,7.30
2022-10-06T00:08:10.284Z,7.70
2022-10-06T00:11:21.312Z,6.43
2022-10-06T00:14:49.724Z,7.70
2022-10-06T00:18:05.288Z,6.55
2022-10-06T00:21:06.931Z,7.37
2022-10-06T00:24:21.263Z,6.43
2022-10-06T00:27:22.872Z,7.10
2022-10-06T00:30:57.324Z,6.27
2022-10-06T00:34:05.892Z,6.97
2022-10-06T00:37:14.318Z,6.80
2022-10-06T00:40:23.508Z,6.95
2022-10-06T00:43:53.261Z,6.47
2022-10-06T00:46:54.909Z,5.57
2022-10-06T00:50:09.286Z,6.40
2022-10-06T00:53:17.810Z,6.03
2022-10-06T00:56:26.289Z,7.22
2022-10-06T00:59:36.715Z,6.10
2022-10-06T01:02:51.314Z,6.33
2022-10-06T01:06:13.331Z,6.28
2022-10-06T01:09:42.376Z,6.50
2022-10-06T01:12:50.263Z,6.43
2022-10-06T01:16:16.094Z,6.67
2022-10-06T01:19:54.275Z,6.60
2022-10-06T01:23:16.713Z,6.78
2022-10-06T01:26:54.286Z,5.80
2022-10-06T01:30:11.537Z,6.68
2022-10-06T01:33:25.351Z,6.20
2022-10-06T01:36:40.366Z,7.07
2022-10-06T01:39:48.768Z,6.10
2022-10-06T01:42:57.295Z,6.32
2022-10-06T01:46:06.471Z,6.60
2022-10-06T01:49:42.293Z,6.33
2022-10-06T01:53:03.846Z,6.77
2022-10-06T01:56:18.289Z,6.18
2022-10-06T01:59:20.119Z,6.18
2022-10-06T02:02:37.450Z,6.37
2022-10-06T02:05:46.079Z,6.77
2022-10-06T02:09:21.287Z,6.70
2022-10-06T02:12:29.824Z,6.43
2022-10-06T02:15:44.379Z,6.40
2022-10-06T02:18:46.027Z,6.22
2022-10-06T02:22:01.279Z,6.17
2022-10-06T02:25:18.271Z,6.60
2022-10-06T02:28:39.787Z,6.07
2022-10-06T02:32:12.363Z,6.78
2022-10-06T02:35:28.287Z,6.05
2022-10-06T02:38:33.569Z,6.43
2022-10-06T02:41:48.318Z,6.73
2022-10-06T02:45:16.331Z,6.72
2022-10-06T02:48:44.611Z,6.68
2022-10-06T02:52:19.400Z,6.47
2022-10-06T02:55:47.864Z,6.87
2022-10-06T02:59:16.311Z,7.17
2022-10-06T03:02:25.172Z,6.53
2022-10-06T03:05:40.328Z,6.45
2022-10-06T03:09:06.073Z,7.20
2022-10-06T03:12:40.312Z,7.63
2022-10-06T03:15:55.475Z,7.00
2022-10-06T03:18:57.862Z,7.40
2022-10-06T03:22:12.667Z,7.22
2022-10-06T03:25:33.507Z,7.55
2022-10-06T03:28:41.933Z,7.20
2022-10-06T03:31:56.316Z,7.23
2022-10-06T03:34:58.683Z,6.85
2022-10-06T03:38:33.326Z,6.57
2022-10-06T03:41:56.647Z,7.07
2022-10-06T03:45:24.299Z,7.57
2022-10-06T03:48:35.680Z,7.50
2022-10-06T03:52:10.453Z,7.80
2022-10-06T03:55:32.008Z,7.00
2022-10-06T03:59:09.599Z,7.03
2022-10-06T04:02:24.375Z,7.60
2022-10-06T04:05:26.145Z,7.43
2022-10-06T04:08:48.312Z,8.07
2022-10-06T04:11:57.046Z,8.60
2022-10-06T04:15:06.351Z,8.88
2022-10-06T04:18:15.910Z,9.40
2022-10-06T04:21:32.297Z,8.73
2022-10-06T04:24:41.330Z,9.43
2022-10-06T04:28:09.672Z,9.52
2022-10-06T04:31:41.357Z,10.45
2022-10-06T04:34:56.318Z,9.27
2022-10-06T04:38:04.893Z,9.63
2022-10-06T04:41:16.307Z,9.98
2022-10-06T04:44:24.831Z,10.23
2022-10-06T04:47:40.336Z,10.38
2022-10-06T04:50:41.943Z,10.40
2022-10-06T04:53:56.328Z,10.10
2022-10-06T04:57:04.354Z,10.80
2022-10-06T05:00:32.731Z,9.52
2022-10-06T05:03:47.362Z,9.27
2022-10-06T05:06:49.223Z,9.37
2022-10-06T05:10:11.323Z,9.63
2022-10-06T05:13:26.580Z,9.55
2022-10-06T05:16:48.137Z,9.48
2022-10-06T05:20:22.346Z,8.93
2022-10-06T05:23:32.753Z,8.83
2022-10-06T05:27:02.003Z,9.87
2022-10-06T05:30:37.624Z,8.75
2022-10-06T05:34:25.763Z,8.95
2022-10-06T05:37:34.423Z,9.13
2022-10-06T05:40:49.331Z,9.40
2022-10-06T05:43:58.578Z,10.87
2022-10-06T06:02:04.514Z,9.27
2022-10-06T06:05:20.376Z,9.13
2022-10-06T06:08:22.928Z,9.65
2022-10-06T06:26:05.516Z,9.68
2022-10-06T06:29:39.843Z,9.10
2022-10-06T06:37:16.059Z,9.53
2022-10-06T07:53:55.548Z,9.67
2022-10-06T07:57:19.543Z,10.75
2022-10-06T08:00:30.008Z,10.30
2022-10-06T08:03:56.404Z,9.60
2022-10-06T08:07:26.387Z,11.07
2022-10-06T08:11:01.831Z,11.77
2022-10-06T08:14:42.590Z,10.43
2022-10-06T08:50:28.608Z,11.23
2022-10-06T09:02:39.530Z,10.27
2022-10-06T09:10:06.825Z,10.67
2022-10-06T10:20:06.521Z,6.30
2022-10-06T10:32:20.886Z,6.85
2022-10-06T10:36:13.548Z,6.53
2022-10-06T12:03:48.787Z,6.12
2022-10-06T12:11:33.447Z,6.60
2022-10-06T12:19:20.318Z,6.20
2022-10-06T12:56:05.010Z,6.12
2022-10-06T13:48:33.610Z,4.90
2022-10-06T13:52:30.844Z,6.10
2022-10-06T13:56:08.468Z,5.40
2022-10-06T14:00:33.714Z,5.57
2022-10-06T14:11:53.647Z,5.80
2022-10-06T14:16:10.181Z,4.57
2022-10-06T14:54:27.036Z,5.40
2022-10-06T16:12:28.666Z,3.85
2022-10-06T16:15:59.738Z,3.20
2022-10-06T16:49:36.158Z,4.03
2022-10-06T16:53:24.204Z,3.93
2022-10-06T16:56:41.674Z,3.80
2022-10-06T17:24:12.975Z,4.82
2022-10-06T17:39:28.926Z,4.87
2022-10-06T17:42:43.798Z,4.62
2022-10-06T18:40:19.740Z,5.60
2022-10-06T18:43:21.537Z,6.35
2022-10-06T18:46:42.676Z,6.10
2022-10-06T18:49:51.319Z,6.50
2022-10-06T18:52:59.897Z,5.97
2022-10-06T18:56:09.128Z,6.10
2022-10-06T18:59:18.667Z,6.60
2022-10-06T19:02:55.690Z,6.23
2022-10-06T19:06:52.732Z,6.80
2022-10-06T19:10:41.936Z,6.62
2022-10-06T19:37:26.952Z,6.97
2022-10-06T19:41:04.417Z,7.17
2022-10-06T20:12:57.228Z,7.25
2022-10-06T20:16:55.806Z,7.50
2022-10-06T20:29:10.680Z,7.40
2022-10-06T20:33:06.492Z,7.18
2022-10-06T20:37:03.727Z,7.80
2022-10-06T20:53:48.951Z,7.40
2022-10-06T20:57:43.968Z,7.45
2022-10-06T21:01:13.116Z,7.53
2022-10-06T21:16:33.462Z,8.07
2022-10-06T22:04:26.749Z,8.80
2022-10-06T22:20:30.189Z,9.23
2022-10-06T22:24:23.005Z,8.63
2022-10-06T22:27:50.757Z,9.00
2022-10-06T23:04:12.745Z,8.23
2022-10-06T23:07:34.266Z,8.30
